sensor_id;sensor_type;location;lat;lon;timestamp;pressure;altitude;pressure_sealevel;temperature;humidity
79150;BME280;68563;45.644;13.782;2024-01-11T00:02:16;102073.25;;;1.68;36.94
79150;BME280;68563;45.644;13.782;2024-01-11T00:04:43;102139.06;;;1.74;36.57
79150;BME280;68563;45.644;13.782;2024-01-11T00:07:09;102065.59;;;1.68;36.52
79150;BME280;68563;45.644;13.782;2024-01-11T00:09:44;102055.25;;;1.65;36.77
79150;BME280;68563;45.644;13.782;2024-01-11T00:12:09;102031.47;;;1.66;36.71
79150;BME280;68563;45.644;13.782;2024-01-11T00:14:35;102039.94;;;1.65;36.88
79150;BME280;68563;45.644;13.782;2024-01-11T00:17:01;102032.19;;;1.64;36.69
79150;BME280;68563;45.644;13.782;2024-01-11T00:19:26;102050.28;;;1.68;37.04
79150;BME280;68563;45.644;13.782;2024-01-11T00:21:52;102049.47;;;1.69;36.63
79150;BME280;68563;45.644;13.782;2024-01-11T00:24:17;102035.34;;;1.58;36.84
79150;BME280;68563;45.644;13.782;2024-01-11T00:26:43;102020.38;;;1.48;36.83
79150;BME280;68563;45.644;13.782;2024-01-11T00:29:08;102058.44;;;1.61;37.06
79150;BME280;68563;45.644;13.782;2024-01-11T00:31:33;102052.41;;;1.59;36.98
79150;BME280;68563;45.644;13.782;2024-01-11T00:33:59;102064.50;;;1.63;36.81
79150;BME280;68563;45.644;13.782;2024-01-11T00:36:24;102045.16;;;1.68;36.53
79150;BME280;68563;45.644;13.782;2024-01-11T00:38:50;102028.25;;;1.70;36.29
79150;BME280;68563;45.644;13.782;2024-01-11T00:41:15;102024.34;;;1.59;36.36
79150;BME280;68563;45.644;13.782;2024-01-11T00:43:41;102028.53;;;1.58;36.72
79150;BME280;68563;45.644;13.782;2024-01-11T00:46:06;102014.66;;;1.71;36.43
79150;BME280;68563;45.644;13.782;2024-01-11T00:48:32;102026.88;;;1.59;36.54
79150;BME280;68563;45.644;13.782;2024-01-11T00:50:57;102024.34;;;1.59;36.24
79150;BME280;68563;45.644;13.782;2024-01-11T00:53:22;102038.19;;;1.64;36.28
79150;BME280;68563;45.644;13.782;2024-01-11T00:55:48;102009.13;;;1.62;36.49
79150;BME280;68563;45.644;13.782;2024-01-11T00:58:13;102047.50;;;1.64;36.18
79150;BME280;68563;45.644;13.782;2024-01-11T01:00:38;102023.81;;;1.66;36.11
79150;BME280;68563;45.644;13.782;2024-01-11T01:03:04;101998.94;;;1.62;36.11
79150;BME280;68563;45.644;13.782;2024-01-11T01:05:29;102025.75;;;1.72;35.85
79150;BME280;68563;45.644;13.782;2024-01-11T01:07:55;102038.72;;;1.77;35.66
79150;BME280;68563;45.644;13.782;2024-01-11T01:10:20;102021.66;;;1.75;35.56
79150;BME280;68563;45.644;13.782;2024-01-11T01:12:45;102003.78;;;1.75;35.56
79150;BME280;68563;45.644;13.782;2024-01-11T01:15:11;102000.94;;;1.69;35.28
79150;BME280;68563;45.644;13.782;2024-01-11T01:17:37;102004.47;;;1.71;35.36
79150;BME280;68563;45.644;13.782;2024-01-11T01:20:02;102030.00;;;1.71;34.99
79150;BME280;68563;45.644;13.782;2024-01-11T01:22:28;102004.31;;;1.68;35.13
79150;BME280;68563;45.644;13.782;2024-01-11T01:24:54;102027.72;;;1.78;35.16
79150;BME280;68563;45.644;13.782;2024-01-11T01:27:19;102020.44;;;1.67;35.01
79150;BME280;68563;45.644;13.782;2024-01-11T01:29:46;102002.13;;;1.76;34.88
79150;BME280;68563;45.644;13.782;2024-01-11T01:32:11;102010.31;;;1.69;34.46
79150;BME280;68563;45.644;13.782;2024-01-11T01:34:36;102007.66;;;1.67;34.49
79150;BME280;68563;45.644;13.782;2024-01-11T01:37:02;102029.31;;;1.75;34.39
79150;BME280;68563;45.644;13.782;2024-01-11T01:39:27;102040.44;;;1.76;34.16
79150;BME280;68563;45.644;13.782;2024-01-11T01:41:53;102041.28;;;1.77;34.11
79150;BME280;68563;45.644;13.782;2024-01-11T01:44:18;102023.47;;;1.78;33.87
79150;BME280;68563;45.644;13.782;2024-01-11T01:46:44;102004.78;;;1.79;33.59
79150;BME280;68563;45.644;13.782;2024-01-11T01:49:10;102018.44;;;1.80;33.65
79150;BME280;68563;45.644;13.782;2024-01-11T01:51:37;102023.63;;;1.81;33.17
79150;BME280;68563;45.644;13.782;2024-01-11T01:54:03;102012.38;;;1.78;33.41
79150;BME280;68563;45.644;13.782;2024-01-11T01:56:29;101989.13;;;1.71;33.61
79150;BME280;68563;45.644;13.782;2024-01-11T01:58:55;102007.63;;;1.85;33.26
79150;BME280;68563;45.644;13.782;2024-01-11T02:01:22;102043.59;;;1.90;33.14
79150;BME280;68563;45.644;13.782;2024-01-11T02:03:50;102018.72;;;1.86;33.33
79150;BME280;68563;45.644;13.782;2024-01-11T02:06:16;102010.53;;;1.93;33.04
79150;BME280;68563;45.644;13.782;2024-01-11T02:08:44;102011.31;;;1.92;32.92
79150;BME280;68563;45.644;13.782;2024-01-11T02:11:11;102034.97;;;1.88;32.92
79150;BME280;68563;45.644;13.782;2024-01-11T02:13:37;102021.75;;;1.97;32.86
79150;BME280;68563;45.644;13.782;2024-01-11T02:16:03;101997.59;;;1.90;32.66
79150;BME280;68563;45.644;13.782;2024-01-11T02:18:28;101997.81;;;1.95;32.75
79150;BME280;68563;45.644;13.782;2024-01-11T02:20:54;102026.78;;;1.95;33.07
79150;BME280;68563;45.644;13.782;2024-01-11T02:23:21;102009.72;;;1.94;32.96
79150;BME280;68563;45.644;13.782;2024-01-11T02:25:49;101999.88;;;1.84;32.70
79150;BME280;68563;45.644;13.782;2024-01-11T02:28:14;101983.88;;;1.88;32.62
79150;BME280;68563;45.644;13.782;2024-01-11T02:30:40;102031.88;;;1.95;32.58
79150;BME280;68563;45.644;13.782;2024-01-11T02:33:05;101995.47;;;1.99;32.29
79150;BME280;68563;45.644;13.782;2024-01-11T02:35:31;101995.19;;;1.93;32.33
79150;BME280;68563;45.644;13.782;2024-01-11T02:37:57;101978.13;;;1.92;32.43
79150;BME280;68563;45.644;13.782;2024-01-11T02:40:23;102003.78;;;1.95;32.26
79150;BME280;68563;45.644;13.782;2024-01-11T02:42:49;101998.03;;;1.99;32.18
79150;BME280;68563;45.644;13.782;2024-01-11T02:45:15;101997.66;;;1.91;32.58
79150;BME280;68563;45.644;13.782;2024-01-11T02:47:40;101995.78;;;1.87;32.72
79150;BME280;68563;45.644;13.782;2024-01-11T02:50:06;101973.28;;;1.79;32.37
79150;BME280;68563;45.644;13.782;2024-01-11T02:52:33;101959.75;;;1.81;32.59
79150;BME280;68563;45.644;13.782;2024-01-11T02:54:58;101966.00;;;1.88;32.10
79150;BME280;68563;45.644;13.782;2024-01-11T02:57:24;101964.13;;;1.84;32.67
79150;BME280;68563;45.644;13.782;2024-01-11T02:59:49;101983.81;;;1.86;32.51
79150;BME280;68563;45.644;13.782;2024-01-11T03:02:15;101988.34;;;1.92;32.44
79150;BME280;68563;45.644;13.782;2024-01-11T03:04:40;101967.50;;;1.83;32.68
79150;BME280;68563;45.644;13.782;2024-01-11T03:07:05;101993.56;;;1.95;32.43
79150;BME280;68563;45.644;13.782;2024-01-11T03:09:31;101977.84;;;1.86;32.71
79150;BME280;68563;45.644;13.782;2024-01-11T03:11:56;101967.69;;;1.87;32.54
79150;BME280;68563;45.644;13.782;2024-01-11T03:14:21;101977.59;;;1.80;32.27
79150;BME280;68563;45.644;13.782;2024-01-11T03:16:47;101970.31;;;1.89;32.58
79150;BME280;68563;45.644;13.782;2024-01-11T03:19:12;101986.16;;;1.82;32.49
79150;BME280;68563;45.644;13.782;2024-01-11T03:21:44;101976.63;;;1.78;32.71
79150;BME280;68563;45.644;13.782;2024-01-11T03:24:09;101956.88;;;1.73;32.74
79150;BME280;68563;45.644;13.782;2024-01-11T03:26:34;101953.78;;;1.81;32.44
79150;BME280;68563;45.644;13.782;2024-01-11T03:29:00;101959.50;;;1.75;32.80
79150;BME280;68563;45.644;13.782;2024-01-11T03:31:25;101960.63;;;1.82;32.66
79150;BME280;68563;45.644;13.782;2024-01-11T03:33:51;101951.63;;;1.70;32.87
79150;BME280;68563;45.644;13.782;2024-01-11T03:36:16;101962.31;;;1.81;32.92
79150;BME280;68563;45.644;13.782;2024-01-11T03:38:41;101976.69;;;1.79;32.84
79150;BME280;68563;45.644;13.782;2024-01-11T03:41:08;101960.50;;;1.79;33.03
79150;BME280;68563;45.644;13.782;2024-01-11T03:43:35;101963.88;;;1.78;32.99
79150;BME280;68563;45.644;13.782;2024-01-11T03:46:00;101956.19;;;1.78;33.31
79150;BME280;68563;45.644;13.782;2024-01-11T03:48:26;101944.28;;;1.78;33.38
79150;BME280;68563;45.644;13.782;2024-01-11T03:50:51;101947.78;;;1.80;33.21
79150;BME280;68563;45.644;13.782;2024-01-11T03:53:17;101954.66;;;1.81;33.32
79150;BME280;68563;45.644;13.782;2024-01-11T03:55:42;101957.34;;;1.84;33.50
79150;BME280;68563;45.644;13.782;2024-01-11T03:58:07;101942.91;;;1.85;33.70
79150;BME280;68563;45.644;13.782;2024-01-11T04:00:33;101936.09;;;1.85;33.22
79150;BME280;68563;45.644;13.782;2024-01-11T04:02:58;101937.09;;;1.89;33.13
79150;BME280;68563;45.644;13.782;2024-01-11T04:05:24;101935.34;;;1.88;33.11
79150;BME280;68563;45.644;13.782;2024-01-11T04:07:49;101941.81;;;1.99;32.86
79150;BME280;68563;45.644;13.782;2024-01-11T04:10:17;101941.66;;;1.96;32.91
79150;BME280;68563;45.644;13.782;2024-01-11T04:12:42;101942.63;;;1.98;32.68
79150;BME280;68563;45.644;13.782;2024-01-11T04:15:08;101963.06;;;1.98;32.58
79150;BME280;68563;45.644;13.782;2024-01-11T04:17:33;101947.72;;;1.98;32.34
79150;BME280;68563;45.644;13.782;2024-01-11T04:19:59;101943.75;;;2.05;32.42
79150;BME280;68563;45.644;13.782;2024-01-11T04:22:24;101948.78;;;2.03;32.38
79150;BME280;68563;45.644;13.782;2024-01-11T04:24:50;101942.00;;;2.04;32.39
79150;BME280;68563;45.644;13.782;2024-01-11T04:27:15;101937.22;;;2.12;32.29
79150;BME280;68563;45.644;13.782;2024-01-11T04:29:40;101954.03;;;2.06;32.26
79150;BME280;68563;45.644;13.782;2024-01-11T04:32:06;101964.22;;;2.05;32.46
79150;BME280;68563;45.644;13.782;2024-01-11T04:34:31;101934.00;;;1.96;32.41
79150;BME280;68563;45.644;13.782;2024-01-11T04:36:57;101981.88;;;2.00;32.71
79150;BME280;68563;45.644;13.782;2024-01-11T04:39:22;101955.19;;;1.94;32.81
79150;BME280;68563;45.644;13.782;2024-01-11T04:41:47;101957.00;;;1.96;32.72
79150;BME280;68563;45.644;13.782;2024-01-11T04:44:13;101945.84;;;1.94;32.82
79150;BME280;68563;45.644;13.782;2024-01-11T04:46:38;101941.91;;;2.02;32.91
79150;BME280;68563;45.644;13.782;2024-01-11T04:49:04;101954.31;;;1.93;33.10
79150;BME280;68563;45.644;13.782;2024-01-11T04:51:29;101949.59;;;1.83;33.27
79150;BME280;68563;45.644;13.782;2024-01-11T04:53:54;101938.59;;;1.84;33.10
79150;BME280;68563;45.644;13.782;2024-01-11T04:56:20;101949.00;;;1.88;33.58
79150;BME280;68563;45.644;13.782;2024-01-11T04:58:45;101922.03;;;1.95;33.42
79150;BME280;68563;45.644;13.782;2024-01-11T05:01:12;101940.13;;;1.80;33.55
79150;BME280;68563;45.644;13.782;2024-01-11T05:03:38;101929.53;;;1.90;33.76
79150;BME280;68563;45.644;13.782;2024-01-11T05:06:03;101926.63;;;1.83;33.96
79150;BME280;68563;45.644;13.782;2024-01-11T05:08:29;101928.53;;;1.87;34.27
79150;BME280;68563;45.644;13.782;2024-01-11T05:10:55;101932.78;;;1.88;34.17
79150;BME280;68563;45.644;13.782;2024-01-11T05:13:20;101928.38;;;1.84;34.12
79150;BME280;68563;45.644;13.782;2024-01-11T05:15:46;101916.59;;;1.87;34.42
79150;BME280;68563;45.644;13.782;2024-01-11T05:18:12;101918.63;;;1.95;34.32
79150;BME280;68563;45.644;13.782;2024-01-11T05:20:38;101927.28;;;1.98;34.26
79150;BME280;68563;45.644;13.782;2024-01-11T05:23:04;101917.81;;;1.96;34.37
79150;BME280;68563;45.644;13.782;2024-01-11T05:25:30;101925.69;;;2.00;34.19
79150;BME280;68563;45.644;13.782;2024-01-11T05:28:01;101921.38;;;1.99;34.05
79150;BME280;68563;45.644;13.782;2024-01-11T05:30:27;101935.25;;;2.06;34.07
79150;BME280;68563;45.644;13.782;2024-01-11T05:32:53;101923.94;;;1.99;33.84
79150;BME280;68563;45.644;13.782;2024-01-11T05:35:19;101926.13;;;2.11;33.27
79150;BME280;68563;45.644;13.782;2024-01-11T05:37:44;101928.53;;;2.08;33.87
79150;BME280;68563;45.644;13.782;2024-01-11T05:40:10;101906.84;;;1.98;33.88
79150;BME280;68563;45.644;13.782;2024-01-11T05:42:35;101919.47;;;2.15;33.54
79150;BME280;68563;45.644;13.782;2024-01-11T05:45:03;101915.06;;;2.12;33.83
79150;BME280;68563;45.644;13.782;2024-01-11T05:47:29;101913.22;;;2.08;33.77
79150;BME280;68563;45.644;13.782;2024-01-11T05:49:54;101914.09;;;2.09;33.68
79150;BME280;68563;45.644;13.782;2024-01-11T05:52:19;101913.97;;;2.05;33.79
79150;BME280;68563;45.644;13.782;2024-01-11T05:54:45;101920.94;;;2.10;33.93
79150;BME280;68563;45.644;13.782;2024-01-11T05:57:10;101915.72;;;2.06;33.46
79150;BME280;68563;45.644;13.782;2024-01-11T05:59:36;101908.03;;;2.06;33.44
79150;BME280;68563;45.644;13.782;2024-01-11T06:02:01;101906.44;;;2.09;32.83
79150;BME280;68563;45.644;13.782;2024-01-11T06:04:27;101919.28;;;2.10;33.00
79150;BME280;68563;45.644;13.782;2024-01-11T06:06:52;101909.06;;;2.10;32.83
79150;BME280;68563;45.644;13.782;2024-01-11T06:09:17;101912.34;;;2.07;32.62
79150;BME280;68563;45.644;13.782;2024-01-11T06:11:43;101913.47;;;2.14;32.15
79150;BME280;68563;45.644;13.782;2024-01-11T06:14:08;101909.25;;;2.15;32.56
79150;BME280;68563;45.644;13.782;2024-01-11T06:16:34;101920.34;;;2.15;32.06
79150;BME280;68563;45.644;13.782;2024-01-11T06:18:59;101923.63;;;2.13;32.02
79150;BME280;68563;45.644;13.782;2024-01-11T06:21:25;101922.94;;;2.17;31.73
79150;BME280;68563;45.644;13.782;2024-01-11T06:23:51;101921.19;;;2.16;31.86
79150;BME280;68563;45.644;13.782;2024-01-11T06:26:16;101914.34;;;2.15;31.38
79150;BME280;68563;45.644;13.782;2024-01-11T06:28:42;101904.13;;;2.15;31.38
79150;BME280;68563;45.644;13.782;2024-01-11T06:31:09;101908.31;;;2.13;31.24
79150;BME280;68563;45.644;13.782;2024-01-11T06:33:35;101910.41;;;2.02;31.37
79150;BME280;68563;45.644;13.782;2024-01-11T06:36:04;101928.94;;;2.17;31.21
79150;BME280;68563;45.644;13.782;2024-01-11T06:38:31;101936.53;;;2.16;31.22
79150;BME280;68563;45.644;13.782;2024-01-11T06:40:56;101918.38;;;2.10;31.39
79150;BME280;68563;45.644;13.782;2024-01-11T06:43:22;101942.28;;;2.10;31.25
79150;BME280;68563;45.644;13.782;2024-01-11T06:45:47;101905.50;;;2.06;31.37
79150;BME280;68563;45.644;13.782;2024-01-11T06:48:13;101917.06;;;1.98;31.46
79150;BME280;68563;45.644;13.782;2024-01-11T06:50:38;101905.09;;;1.97;31.77
79150;BME280;68563;45.644;13.782;2024-01-11T06:53:03;101920.72;;;1.84;31.73
79150;BME280;68563;45.644;13.782;2024-01-11T06:55:29;101903.22;;;1.93;31.27
79150;BME280;68563;45.644;13.782;2024-01-11T06:57:55;101908.59;;;2.20;34.44
79150;BME280;68563;45.644;13.782;2024-01-11T07:00:20;101887.56;;;2.05;31.42
79150;BME280;68563;45.644;13.782;2024-01-11T07:02:47;101909.97;;;2.12;31.36
79150;BME280;68563;45.644;13.782;2024-01-11T07:05:12;101889.59;;;2.14;31.35
79150;BME280;68563;45.644;13.782;2024-01-11T07:07:38;101923.44;;;2.08;31.41
79150;BME280;68563;45.644;13.782;2024-01-11T07:10:03;101920.28;;;2.14;30.84
79150;BME280;68563;45.644;13.782;2024-01-11T07:12:30;101897.13;;;2.11;30.74
79150;BME280;68563;45.644;13.782;2024-01-11T07:14:56;101885.25;;;2.11;30.73
79150;BME280;68563;45.644;13.782;2024-01-11T07:17:21;101888.66;;;2.12;30.62
79150;BME280;68563;45.644;13.782;2024-01-11T07:19:48;101895.72;;;2.17;30.18
79150;BME280;68563;45.644;13.782;2024-01-11T07:22:13;101898.03;;;2.11;30.56
79150;BME280;68563;45.644;13.782;2024-01-11T07:24:38;101903.38;;;2.17;30.37
79150;BME280;68563;45.644;13.782;2024-01-11T07:27:07;101891.28;;;2.13;30.27
79150;BME280;68563;45.644;13.782;2024-01-11T07:29:33;101893.06;;;2.16;30.36
79150;BME280;68563;45.644;13.782;2024-01-11T07:31:59;101885.50;;;2.82;29.76
79150;BME280;68563;45.644;13.782;2024-01-11T07:34:25;101874.09;;;3.92;28.20
79150;BME280;68563;45.644;13.782;2024-01-11T07:36:52;101876.44;;;4.94;27.05
79150;BME280;68563;45.644;13.782;2024-01-11T07:39:17;101878.75;;;5.76;25.77
79150;BME280;68563;45.644;13.782;2024-01-11T07:41:43;101886.56;;;6.13;25.14
79150;BME280;68563;45.644;13.782;2024-01-11T07:44:08;101880.72;;;6.18;24.47
79150;BME280;68563;45.644;13.782;2024-01-11T07:46:33;101880.34;;;6.04;25.11
79150;BME280;68563;45.644;13.782;2024-01-11T07:48:59;101879.84;;;5.86;25.33
79150;BME280;68563;45.644;13.782;2024-01-11T07:51:24;101895.38;;;5.58;25.75
79150;BME280;68563;45.644;13.782;2024-01-11T07:53:50;101894.09;;;5.42;26.23
79150;BME280;68563;45.644;13.782;2024-01-11T07:56:16;101883.88;;;5.15;26.31
79150;BME280;68563;45.644;13.782;2024-01-11T07:58:42;101887.72;;;4.99;26.42
79150;BME280;68563;45.644;13.782;2024-01-11T08:01:07;101873.44;;;4.51;26.13
79150;BME280;68563;45.644;13.782;2024-01-11T08:03:33;101890.34;;;4.46;26.55
79150;BME280;68563;45.644;13.782;2024-01-11T08:06:00;101890.09;;;4.37;26.86
79150;BME280;68563;45.644;13.782;2024-01-11T08:08:25;101901.84;;;4.31;27.00
79150;BME280;68563;45.644;13.782;2024-01-11T08:10:51;101911.78;;;4.21;26.45
79150;BME280;68563;45.644;13.782;2024-01-11T08:13:17;101906.44;;;4.14;26.21
79150;BME280;68563;45.644;13.782;2024-01-11T08:15:43;101898.63;;;4.10;26.72
79150;BME280;68563;45.644;13.782;2024-01-11T08:18:08;101912.09;;;4.04;26.83
79150;BME280;68563;45.644;13.782;2024-01-11T08:20:34;101905.22;;;4.03;26.39
79150;BME280;68563;45.644;13.782;2024-01-11T08:22:59;101910.78;;;3.91;26.90
79150;BME280;68563;45.644;13.782;2024-01-11T08:25:25;101913.47;;;3.94;26.79
79150;BME280;68563;45.644;13.782;2024-01-11T08:27:50;101899.72;;;3.92;26.75
79150;BME280;68563;45.644;13.782;2024-01-11T08:30:16;101890.97;;;3.86;26.65
79150;BME280;68563;45.644;13.782;2024-01-11T08:32:41;101900.22;;;3.82;26.52
79150;BME280;68563;45.644;13.782;2024-01-11T08:35:09;101899.16;;;3.77;27.07
79150;BME280;68563;45.644;13.782;2024-01-11T08:37:37;101915.47;;;3.79;27.24
79150;BME280;68563;45.644;13.782;2024-01-11T08:40:04;101894.78;;;3.73;27.03
79150;BME280;68563;45.644;13.782;2024-01-11T08:42:31;101902.72;;;3.80;26.78
79150;BME280;68563;45.644;13.782;2024-01-11T08:44:57;101903.41;;;3.75;27.03
79150;BME280;68563;45.644;13.782;2024-01-11T08:47:22;101893.22;;;3.78;26.80
79150;BME280;68563;45.644;13.782;2024-01-11T08:49:47;101906.69;;;3.72;27.01
79150;BME280;68563;45.644;13.782;2024-01-11T08:52:13;101893.16;;;3.75;26.99
79150;BME280;68563;45.644;13.782;2024-01-11T08:54:38;101880.97;;;3.69;27.01
79150;BME280;68563;45.644;13.782;2024-01-11T08:57:04;101880.16;;;3.70;26.56
79150;BME280;68563;45.644;13.782;2024-01-11T08:59:29;101882.94;;;3.76;26.77
79150;BME280;68563;45.644;13.782;2024-01-11T09:01:55;101887.94;;;3.73;27.07
79150;BME280;68563;45.644;13.782;2024-01-11T09:04:20;101884.63;;;3.76;27.00
79150;BME280;68563;45.644;13.782;2024-01-11T09:06:46;101904.38;;;3.78;27.18
79150;BME280;68563;45.644;13.782;2024-01-11T09:09:11;101887.25;;;3.77;27.14
79150;BME280;68563;45.644;13.782;2024-01-11T09:11:39;101897.66;;;3.82;27.19
79150;BME280;68563;45.644;13.782;2024-01-11T09:14:06;101886.69;;;3.86;26.97
79150;BME280;68563;45.644;13.782;2024-01-11T09:16:32;101885.88;;;3.87;27.09
79150;BME280;68563;45.644;13.782;2024-01-11T09:18:58;101886.84;;;3.91;27.07
79150;BME280;68563;45.644;13.782;2024-01-11T09:21:25;101893.72;;;3.92;27.35
79150;BME280;68563;45.644;13.782;2024-01-11T09:23:51;101903.03;;;3.90;27.03
79150;BME280;68563;45.644;13.782;2024-01-11T09:26:16;101901.41;;;3.92;27.00
79150;BME280;68563;45.644;13.782;2024-01-11T09:28:41;101903.63;;;4.07;26.69
79150;BME280;68563;45.644;13.782;2024-01-11T09:31:07;101889.78;;;4.02;26.48
79150;BME280;68563;45.644;13.782;2024-01-11T09:33:32;101887.16;;;4.00;26.73
79150;BME280;68563;45.644;13.782;2024-01-11T09:35:57;101892.50;;;4.06;26.54
79150;BME280;68563;45.644;13.782;2024-01-11T09:38:23;101881.88;;;3.95;26.84
79150;BME280;68563;45.644;13.782;2024-01-11T09:40:59;101893.00;;;3.96;27.05
79150;BME280;68563;45.644;13.782;2024-01-11T09:43:29;101885.91;;;4.14;26.61
79150;BME280;68563;45.644;13.782;2024-01-11T09:45:56;101890.91;;;4.10;26.90
79150;BME280;68563;45.644;13.782;2024-01-11T09:48:23;101886.53;;;4.07;26.98
79150;BME280;68563;45.644;13.782;2024-01-11T09:50:50;101880.94;;;4.19;26.68
79150;BME280;68563;45.644;13.782;2024-01-11T09:53:18;101880.06;;;4.17;26.92
79150;BME280;68563;45.644;13.782;2024-01-11T09:55:46;101853.16;;;4.06;26.60
79150;BME280;68563;45.644;13.782;2024-01-11T09:58:12;101876.56;;;4.15;26.87
79150;BME280;68563;45.644;13.782;2024-01-11T10:00:39;101869.78;;;4.17;26.77
79150;BME280;68563;45.644;13.782;2024-01-11T10:03:06;101870.59;;;4.16;26.75
79150;BME280;68563;45.644;13.782;2024-01-11T10:05:33;101852.72;;;4.18;26.70
79150;BME280;68563;45.644;13.782;2024-01-11T10:07:59;101861.94;;;4.40;26.41
79150;BME280;68563;45.644;13.782;2024-01-11T10:10:24;101848.16;;;4.36;26.30
79150;BME280;68563;45.644;13.782;2024-01-11T10:12:51;101832.22;;;4.45;26.13
79150;BME280;68563;45.644;13.782;2024-01-11T10:15:16;101831.44;;;4.47;26.08
79150;BME280;68563;45.644;13.782;2024-01-11T10:17:44;101836.59;;;4.49;25.88
79150;BME280;68563;45.644;13.782;2024-01-11T10:20:14;101821.94;;;4.45;26.30
79150;BME280;68563;45.644;13.782;2024-01-11T10:22:40;101814.16;;;4.42;26.25
79150;BME280;68563;45.644;13.782;2024-01-11T10:25:11;101814.16;;;4.42;26.49
79150;BME280;68563;45.644;13.782;2024-01-11T10:27:40;101822.97;;;4.50;26.32
79150;BME280;68563;45.644;13.782;2024-01-11T10:30:07;101817.88;;;4.52;26.39
79150;BME280;68563;45.644;13.782;2024-01-11T10:32:33;101773.00;;;4.39;25.62
79150;BME280;68563;45.644;13.782;2024-01-11T10:35:00;101788.16;;;4.58;25.39
79150;BME280;68563;45.644;13.782;2024-01-11T10:37:28;101805.53;;;4.69;25.37
79150;BME280;68563;45.644;13.782;2024-01-11T10:39:57;101792.53;;;4.62;25.47
79150;BME280;68563;45.644;13.782;2024-01-11T10:42:24;101795.22;;;4.66;25.84
79150;BME280;68563;45.644;13.782;2024-01-11T10:44:54;101800.41;;;4.69;25.93
79150;BME280;68563;45.644;13.782;2024-01-11T10:47:21;101809.53;;;4.88;25.49
79150;BME280;68563;45.644;13.782;2024-01-11T10:49:50;101773.00;;;4.68;25.46
79150;BME280;68563;45.644;13.782;2024-01-11T10:52:23;101778.44;;;4.78;25.78
79150;BME280;68563;45.644;13.782;2024-01-11T10:54:54;101817.50;;;4.97;25.70
79150;BME280;68563;45.644;13.782;2024-01-11T10:57:20;101773.59;;;4.88;25.43
79150;BME280;68563;45.644;13.782;2024-01-11T10:59:48;101766.75;;;4.88;25.91
79150;BME280;68563;45.644;13.782;2024-01-11T11:02:14;101743.03;;;4.67;26.05
79150;BME280;68563;45.644;13.782;2024-01-11T11:04:42;101772.19;;;4.99;26.16
79150;BME280;68563;45.644;13.782;2024-01-11T11:07:08;101756.88;;;5.02;25.98
79150;BME280;68563;45.644;13.782;2024-01-11T11:09:34;101775.84;;;5.07;25.73
79150;BME280;68563;45.644;13.782;2024-01-11T11:12:00;101780.31;;;5.15;25.84
79150;BME280;68563;45.644;13.782;2024-01-11T11:14:27;101771.75;;;5.14;25.98
79150;BME280;68563;45.644;13.782;2024-01-11T11:16:53;101762.88;;;5.35;25.59
79150;BME280;68563;45.644;13.782;2024-01-11T11:19:20;101747.06;;;5.19;25.72
79150;BME280;68563;45.644;13.782;2024-01-11T11:21:47;101758.19;;;5.52;25.75
79150;BME280;68563;45.644;13.782;2024-01-11T11:24:13;101739.41;;;5.54;25.54
79150;BME280;68563;45.644;13.782;2024-01-11T11:26:39;101741.00;;;5.49;25.73
79150;BME280;68563;45.644;13.782;2024-01-11T11:29:05;101731.53;;;5.48;25.72
79150;BME280;68563;45.644;13.782;2024-01-11T11:31:37;101728.06;;;5.46;25.87
79150;BME280;68563;45.644;13.782;2024-01-11T11:34:06;101712.28;;;5.67;25.38
79150;BME280;68563;45.644;13.782;2024-01-11T11:36:33;101711.47;;;5.68;25.77
79150;BME280;68563;45.644;13.782;2024-01-11T11:39:01;101709.97;;;5.78;25.45
79150;BME280;68563;45.644;13.782;2024-01-11T11:41:27;101696.38;;;5.82;25.29
79150;BME280;68563;45.644;13.782;2024-01-11T11:43:52;101696.50;;;5.87;25.52
79150;BME280;68563;45.644;13.782;2024-01-11T11:46:19;101701.88;;;5.98;24.98
79150;BME280;68563;45.644;13.782;2024-01-11T11:48:48;101691.50;;;5.93;25.04
79150;BME280;68563;45.644;13.782;2024-01-11T11:51:15;101702.94;;;6.06;24.99
79150;BME280;68563;45.644;13.782;2024-01-11T11:53:41;101691.81;;;6.07;25.19
79150;BME280;68563;45.644;13.782;2024-01-11T11:56:08;101690.06;;;6.04;25.29
79150;BME280;68563;45.644;13.782;2024-01-11T11:58:38;101689.19;;;6.04;25.12
79150;BME280;68563;45.644;13.782;2024-01-11T12:01:06;101681.50;;;6.05;25.09
79150;BME280;68563;45.644;13.782;2024-01-11T12:03:36;101672.88;;;6.03;24.87
79150;BME280;68563;45.644;13.782;2024-01-11T12:06:03;101658.25;;;6.01;24.99
79150;BME280;68563;45.644;13.782;2024-01-11T12:08:29;101656.59;;;6.03;25.28
79150;BME280;68563;45.644;13.782;2024-01-11T12:10:54;101662.66;;;6.05;25.11
79150;BME280;68563;45.644;13.782;2024-01-11T12:13:20;101651.84;;;6.21;25.25
79150;BME280;68563;45.644;13.782;2024-01-11T12:15:46;101654.41;;;6.21;25.07
79150;BME280;68563;45.644;13.782;2024-01-11T12:18:12;101652.41;;;6.08;25.37
79150;BME280;68563;45.644;13.782;2024-01-11T12:20:37;101654.94;;;6.05;25.34
79150;BME280;68563;45.644;13.782;2024-01-11T12:23:03;101654.94;;;6.05;25.04
79150;BME280;68563;45.644;13.782;2024-01-11T12:25:30;101636.94;;;6.05;25.28
79150;BME280;68563;45.644;13.782;2024-01-11T12:27:56;101634.41;;;6.08;25.42
79150;BME280;68563;45.644;13.782;2024-01-11T12:30:25;101636.50;;;6.26;25.38
79150;BME280;68563;45.644;13.782;2024-01-11T12:32:52;101620.13;;;6.21;25.35
79150;BME280;68563;45.644;13.782;2024-01-11T12:35:18;101608.69;;;6.08;25.75
79150;BME280;68563;45.644;13.782;2024-01-11T12:38:01;101618.25;;;6.14;25.34
79150;BME280;68563;45.644;13.782;2024-01-11T12:40:32;101628.88;;;6.29;25.62
79150;BME280;68563;45.644;13.782;2024-01-11T12:42:57;101621.09;;;6.28;25.80
79150;BME280;68563;45.644;13.782;2024-01-11T12:45:24;101612.44;;;6.22;25.56